createdAt,value
2017-10-29T00:00:08.473Z,15.95
2017-10-29T00:02:34.610Z,15.85
2017-10-29T00:05:00.714Z,14.73
2017-10-29T00:07:26.838Z,14.90
2017-10-29T00:09:52.953Z,13.50
2017-10-29T00:12:20.439Z,12.07
2017-10-29T00:14:46.546Z,12.25
2017-10-29T00:17:19.817Z,8.77
2017-10-29T00:19:46.050Z,5.75
2017-10-29T00:22:15.726Z,5.43
2017-10-29T00:24:41.938Z,4.35
2017-10-29T00:27:08.075Z,4.87
2017-10-29T00:29:34.200Z,4.18
2017-10-29T00:32:01.750Z,4.72
2017-10-29T00:34:27.878Z,5.33
2017-10-29T00:36:54.762Z,6.25
2017-10-29T00:39:20.909Z,5.87
2017-10-29T00:41:48.608Z,7.37
2017-10-29T00:44:15.498Z,6.68
2017-10-29T00:46:41.624Z,7.63
2017-10-29T00:49:08.525Z,7.70
2017-10-29T00:51:34.633Z,8.73
2017-10-29T00:54:00.764Z,6.80
2017-10-29T00:56:27.673Z,7.30
2017-10-29T00:58:53.796Z,8.15
2017-10-29T01:01:19.928Z,7.70
2017-10-29T01:03:46.331Z,6.80
2017-10-29T01:06:12.512Z,7.50
2017-10-29T01:08:38.645Z,7.57
2017-10-29T01:11:04.764Z,7.10
2017-10-29T01:13:30.885Z,6.70
2017-10-29T01:15:57.208Z,7.20
2017-10-29T01:18:23.387Z,7.00
2017-10-29T01:20:49.518Z,7.03
2017-10-29T01:23:15.668Z,8.40
2017-10-29T01:25:41.780Z,8.80
2017-10-29T01:28:07.945Z,9.07
2017-10-29T01:30:37.409Z,6.60
2017-10-29T01:33:04.655Z,7.33
2017-10-29T01:35:31.543Z,6.37
2017-10-29T01:37:57.685Z,6.12
2017-10-29T01:40:24.573Z,6.53
2017-10-29T01:42:50.726Z,6.70
2017-10-29T01:45:17.555Z,6.72
2017-10-29T01:47:47.675Z,6.43
2017-10-29T01:50:13.801Z,5.83
2017-10-29T01:52:46.007Z,4.87
2017-10-29T01:55:12.110Z,4.90
2017-10-29T01:57:38.210Z,5.03
2017-10-29T02:00:06.173Z,6.00
2017-10-29T02:02:32.249Z,6.07
2017-10-29T02:04:58.408Z,6.25
2017-10-29T02:07:24.534Z,7.18
2017-10-29T02:09:55.322Z,7.00
2017-10-29T02:12:21.434Z,8.63
2017-10-29T02:14:47.541Z,7.35
2017-10-29T02:17:13.645Z,6.97
2017-10-29T02:19:39.745Z,5.55
2017-10-29T02:22:05.849Z,5.20
2017-10-29T02:24:31.977Z,3.50
2017-10-29T02:26:58.078Z,3.70
2017-10-29T02:29:24.208Z,3.42
2017-10-29T02:31:50.310Z,3.20
2017-10-29T02:34:17.158Z,3.03
2017-10-29T02:36:43.312Z,2.90
2017-10-29T02:39:10.153Z,2.60
2017-10-29T02:41:36.274Z,2.45
2017-10-29T02:46:59.657Z,4.15
2017-10-29T02:49:26.653Z,4.57
2017-10-29T02:51:52.765Z,5.00
2017-10-29T02:54:19.689Z,4.10
2017-10-29T02:56:45.918Z,4.27
2017-10-29T02:59:12.157Z,4.80
2017-10-29T03:01:38.315Z,4.55
2017-10-29T03:04:04.422Z,4.10
2017-10-29T03:06:30.685Z,4.03
2017-10-29T03:08:56.966Z,5.93
2017-10-29T03:11:23.188Z,3.75
2017-10-29T03:14:01.503Z,2.90
2017-10-29T03:16:27.621Z,2.10
2017-10-29T03:18:54.337Z,2.72
2017-10-29T03:21:20.446Z,2.75
2017-10-29T03:23:51.965Z,2.12
2017-10-29T03:26:18.209Z,3.50
2017-10-29T03:28:45.127Z,2.90
2017-10-29T03:31:29.287Z,3.50
2017-10-29T03:34:02.126Z,3.25
2017-10-29T03:36:29.861Z,3.67
2017-10-29T03:38:56.247Z,2.30
2017-10-29T03:41:22.578Z,2.45
2017-10-29T03:43:49.032Z,2.78
2017-10-29T03:46:15.363Z,2.28
2017-10-29T03:48:41.694Z,2.10
2017-10-29T03:51:08.757Z,2.05
2017-10-29T03:53:35.825Z,1.60
2017-10-29T03:56:02.883Z,2.00
2017-10-29T03:58:29.202Z,1.92
2017-10-29T04:00:55.513Z,3.95
2017-10-29T04:03:22.557Z,2.75
2017-10-29T04:05:48.948Z,2.70
2017-10-29T04:08:15.253Z,2.30
2017-10-29T04:10:41.566Z,1.80
2017-10-29T04:13:07.886Z,1.87
2017-10-29T04:15:34.203Z,1.30
2017-10-29T04:18:00.511Z,2.08
2017-10-29T04:20:27.592Z,1.60
2017-10-29T04:22:53.925Z,2.33
2017-10-29T04:25:20.993Z,2.05
2017-10-29T04:27:48.117Z,2.70
2017-10-29T04:30:14.466Z,1.87
2017-10-29T04:32:40.802Z,2.35
2017-10-29T04:35:07.123Z,2.10
2017-10-29T04:37:33.454Z,2.72
2017-10-29T04:40:00.766Z,2.28
2017-10-29T04:42:27.074Z,2.50
2017-10-29T04:44:57.462Z,2.50
2017-10-29T04:47:24.016Z,2.40
2017-10-29T04:49:50.323Z,1.83
2017-10-29T04:52:17.374Z,2.90
2017-10-29T04:54:43.680Z,2.75
2017-10-29T04:57:10.040Z,4.78
2017-10-29T04:59:36.538Z,2.40
2017-10-29T05:02:02.869Z,2.50
2017-10-29T05:04:29.221Z,3.60
2017-10-29T05:06:55.537Z,3.30
2017-10-29T05:09:21.904Z,2.87
2017-10-29T05:11:49.641Z,2.47
2017-10-29T05:14:16.737Z,1.98
2017-10-29T05:16:43.808Z,2.80
2017-10-29T05:19:10.881Z,2.50
2017-10-29T05:21:37.228Z,3.15
2017-10-29T05:24:03.557Z,2.60
2017-10-29T05:26:30.045Z,2.70
2017-10-29T05:28:57.122Z,2.50
2017-10-29T05:31:23.436Z,2.40
2017-10-29T05:33:50.762Z,2.70
2017-10-29T05:36:17.097Z,2.55
2017-10-29T05:38:44.177Z,2.20
2017-10-29T05:41:13.798Z,2.70
2017-10-29T05:43:40.142Z,2.92
2017-10-29T05:46:09.604Z,2.55
2017-10-29T05:48:35.934Z,2.83
2017-10-29T05:51:03.050Z,2.97
2017-10-29T05:53:32.301Z,2.55
2017-10-29T05:56:00.368Z,2.53
2017-10-29T05:58:26.665Z,3.35
2017-10-29T06:00:53.737Z,2.95
2017-10-29T06:03:20.809Z,2.45
2017-10-29T06:05:47.946Z,3.22
2017-10-29T06:08:15.035Z,3.20
2017-10-29T06:10:41.417Z,3.22
2017-10-29T06:13:08.882Z,2.97
2017-10-29T06:15:35.926Z,3.12
2017-10-29T06:18:04.482Z,3.53
2017-10-29T06:20:30.805Z,3.30
2017-10-29T06:25:34.707Z,4.72
2017-10-29T06:28:01.038Z,3.03
2017-10-29T06:30:27.364Z,2.80
2017-10-29T06:32:53.702Z,4.80
2017-10-29T06:35:20.033Z,3.90
2017-10-29T06:37:46.356Z,3.53
2017-10-29T06:40:12.662Z,3.97
2017-10-29T06:42:42.431Z,3.72
2017-10-29T06:45:09.504Z,4.03
2017-10-29T06:47:37.383Z,4.10
2017-10-29T06:50:04.493Z,5.62
2017-10-29T06:52:30.836Z,3.72
2017-10-29T06:54:57.160Z,3.58
2017-10-29T06:57:24.072Z,4.65
2017-10-29T06:59:50.405Z,4.30
2017-10-29T07:02:16.732Z,3.92
2017-10-29T07:04:45.525Z,4.80
2017-10-29T07:07:12.713Z,5.12
2017-10-29T07:09:39.877Z,3.83
2017-10-29T07:12:06.214Z,3.40
2017-10-29T07:14:32.526Z,4.53
2017-10-29T07:16:58.933Z,5.20
2017-10-29T07:19:25.251Z,4.65
2017-10-29T07:21:51.593Z,4.65
2017-10-29T07:24:17.934Z,4.12
2017-10-29T07:26:44.281Z,4.30
2017-10-29T07:29:10.638Z,3.55
2017-10-29T07:31:38.188Z,5.03
2017-10-29T07:34:04.517Z,4.65
2017-10-29T07:36:30.832Z,4.07
2017-10-29T07:38:57.160Z,5.30
2017-10-29T07:41:23.511Z,3.90
2017-10-29T07:43:49.864Z,4.18
2017-10-29T07:46:16.338Z,5.60
2017-10-29T07:48:42.677Z,3.83
2017-10-29T07:51:09.304Z,4.72
2017-10-29T07:53:35.653Z,3.53
2017-10-29T07:56:05.068Z,3.75
2017-10-29T07:58:31.386Z,4.18
2017-10-29T08:00:57.705Z,3.70
2017-10-29T08:03:24.117Z,4.15
2017-10-29T08:05:50.466Z,3.97
2017-10-29T08:08:17.530Z,4.20
2017-10-29T08:10:44.581Z,3.80
2017-10-29T08:13:10.942Z,3.60
2017-10-29T08:15:37.281Z,3.58
2017-10-29T08:18:03.606Z,4.65
2017-10-29T08:20:29.908Z,3.50
2017-10-29T08:22:56.295Z,3.20
2017-10-29T08:25:22.631Z,3.65
2017-10-29T08:27:49.053Z,3.28
2017-10-29T08:30:16.186Z,4.10
2017-10-29T08:32:42.499Z,3.00
2017-10-29T08:35:08.823Z,3.15
2017-10-29T08:37:35.919Z,2.70
2017-10-29T08:40:02.251Z,4.00
2017-10-29T08:42:32.713Z,2.80
2017-10-29T08:44:59.053Z,3.37
2017-10-29T08:47:26.131Z,2.62
2017-10-29T08:49:53.234Z,4.15
2017-10-29T08:52:19.561Z,2.85
2017-10-29T08:54:46.611Z,3.05
2017-10-29T08:57:16.893Z,2.87
2017-10-29T08:59:43.334Z,2.83
2017-10-29T09:02:10.388Z,2.67
2017-10-29T09:07:08.055Z,2.92
2017-10-29T09:09:34.362Z,3.33
2017-10-29T09:12:00.703Z,3.20
2017-10-29T09:14:27.011Z,3.10
2017-10-29T09:16:53.309Z,3.17
2017-10-29T09:19:20.363Z,3.33
2017-10-29T09:21:46.719Z,3.55
2017-10-29T09:24:13.146Z,3.08
2017-10-29T09:26:40.277Z,3.20
2017-10-29T09:29:06.591Z,3.12
2017-10-29T09:31:32.912Z,3.37
2017-10-29T09:33:59.266Z,3.22
2017-10-29T09:36:25.651Z,4.97
2017-10-29T09:38:52.014Z,4.12
2017-10-29T09:41:19.086Z,3.33
2017-10-29T09:43:46.149Z,3.67
2017-10-29T09:46:14.802Z,3.60
2017-10-29T09:48:41.174Z,2.83
2017-10-29T09:51:07.514Z,2.62
2017-10-29T09:53:33.845Z,2.78
2017-10-29T09:56:00.140Z,3.80
2017-10-29T09:58:26.477Z,2.83
2017-10-29T10:00:52.794Z,3.20
2017-10-29T10:03:24.879Z,3.50
2017-10-29T10:05:51.888Z,3.70
2017-10-29T10:08:18.019Z,3.08
2017-10-29T10:10:44.139Z,2.75
2017-10-29T10:13:10.246Z,3.03
2017-10-29T10:15:36.358Z,2.47
2017-10-29T10:18:03.225Z,2.50
2017-10-29T10:20:29.415Z,2.83
2017-10-29T10:22:55.529Z,3.15
2017-10-29T10:25:22.373Z,2.60
2017-10-29T10:27:48.553Z,2.33
2017-10-29T10:30:15.397Z,2.85
2017-10-29T10:32:41.516Z,2.70
2017-10-29T10:35:07.657Z,2.37
2017-10-29T10:37:33.800Z,2.95
2017-10-29T10:39:59.936Z,2.55
2017-10-29T10:42:26.056Z,2.85
2017-10-29T10:44:52.182Z,2.60
2017-10-29T10:47:18.302Z,3.22
2017-10-29T10:49:44.668Z,2.05
2017-10-29T10:52:10.832Z,2.58
2017-10-29T10:54:37.140Z,2.70
2017-10-29T10:57:03.511Z,2.70
2017-10-29T10:59:29.923Z,2.10
2017-10-29T11:01:57.536Z,3.05
2017-10-29T11:04:40.294Z,2.60
2017-10-29T11:07:07.379Z,2.85
2017-10-29T11:09:33.738Z,3.60
2017-10-29T11:12:00.047Z,2.70
2017-10-29T11:14:26.442Z,2.70
2017-10-29T11:16:52.751Z,3.12
2017-10-29T11:19:19.088Z,2.25
2017-10-29T11:21:45.401Z,2.47
2017-10-29T11:24:12.486Z,2.78
2017-10-29T11:26:39.546Z,2.85
2017-10-29T11:29:06.149Z,2.83
2017-10-29T11:31:32.473Z,2.60
2017-10-29T11:33:58.752Z,3.10
2017-10-29T11:36:25.182Z,3.15
2017-10-29T11:38:52.240Z,2.62
2017-10-29T11:41:18.589Z,2.58
2017-10-29T11:43:44.903Z,4.50
2017-10-29T11:46:11.221Z,2.40
2017-10-29T11:48:37.583Z,2.37
2017-10-29T11:51:03.926Z,1.65
2017-10-29T11:53:31.444Z,2.25
2017-10-29T11:55:58.041Z,2.10
2017-10-29T11:58:26.325Z,2.40
2017-10-29T12:00:52.438Z,1.55
2017-10-29T12:03:18.519Z,2.28
2017-10-29T12:05:45.923Z,2.28
2017-10-29T12:08:12.798Z,2.08
2017-10-29T12:10:38.931Z,1.87
2017-10-29T12:13:05.798Z,2.10
2017-10-29T12:15:31.906Z,2.15
2017-10-29T12:17:58.011Z,2.50
2017-10-29T12:20:24.100Z,2.53
2017-10-29T12:22:50.213Z,3.65
2017-10-29T12:25:17.361Z,2.42
2017-10-29T12:27:44.485Z,2.40
2017-10-29T12:30:10.846Z,2.20
2017-10-29T12:32:44.180Z,2.72
2017-10-29T12:35:10.349Z,3.00
2017-10-29T12:37:36.560Z,3.17
2017-10-29T12:40:02.677Z,2.75
2017-10-29T12:42:29.572Z,2.67
2017-10-29T12:44:56.425Z,2.45
2017-10-29T12:47:23.309Z,2.00
2017-10-29T12:49:55.957Z,2.10
2017-10-29T12:52:22.127Z,2.80
2017-10-29T12:54:49.034Z,4.55
2017-10-29T12:57:15.199Z,2.20
2017-10-29T12:59:41.386Z,2.87
2017-10-29T13:02:07.506Z,2.75
2017-10-29T13:04:33.633Z,2.60
2017-10-29T13:06:59.800Z,3.03
2017-10-29T13:09:25.929Z,3.90
2017-10-29T13:11:52.040Z,2.92
2017-10-29T13:14:18.895Z,2.75
2017-10-29T13:16:45.062Z,2.20
2017-10-29T13:19:11.184Z,2.72
2017-10-29T13:21:38.025Z,3.03
2017-10-29T13:24:04.135Z,1.95
2017-10-29T13:26:30.252Z,2.90
2017-10-29T13:28:59.991Z,2.78
2017-10-29T13:31:26.208Z,3.25
2017-10-29T13:33:53.093Z,2.97
2017-10-29T13:36:19.282Z,2.92
2017-10-29T13:38:45.519Z,2.10
2017-10-29T13:41:12.357Z,2.37
2017-10-29T13:43:38.495Z,2.55
2017-10-29T13:46:10.686Z,3.25
2017-10-29T13:48:36.803Z,2.50
2017-10-29T13:51:02.966Z,2.50
2017-10-29T13:53:29.089Z,2.67
2017-10-29T13:55:55.976Z,2.75
2017-10-29T13:58:22.877Z,1.70
2017-10-29T14:00:48.990Z,2.30
2017-10-29T14:03:17.272Z,2.83
2017-10-29T14:05:43.430Z,1.90
2017-10-29T14:08:09.561Z,2.37
2017-10-29T14:10:37.524Z,2.75
2017-10-29T14:13:04.597Z,2.47
2017-10-29T14:15:33.648Z,2.37
2017-10-29T14:20:48.930Z,1.70
2017-10-29T14:26:15.520Z,2.65
2017-10-29T14:28:41.867Z,4.03
2017-10-29T14:31:08.210Z,2.80
2017-10-29T14:33:35.714Z,1.80
2017-10-29T14:36:02.067Z,1.98
2017-10-29T14:38:28.459Z,3.08
2017-10-29T14:40:54.997Z,2.33
2017-10-29T14:43:21.361Z,2.55
2017-10-29T14:45:47.775Z,2.53
2017-10-29T14:48:14.176Z,2.60
2017-10-29T14:50:41.292Z,3.75
2017-10-29T14:53:07.624Z,2.97
2017-10-29T14:55:33.928Z,1.90
2017-10-29T14:58:00.258Z,2.60
2017-10-29T15:00:27.769Z,3.30
2017-10-29T15:02:55.818Z,4.43
2017-10-29T15:05:24.044Z,3.30
2017-10-29T15:07:51.761Z,3.85
2017-10-29T15:10:21.200Z,2.60
2017-10-29T15:12:48.365Z,2.62
2017-10-29T15:15:15.700Z,3.03
2017-10-29T15:17:42.225Z,5.03
2017-10-29T15:20:09.906Z,4.30
2017-10-29T15:22:37.108Z,3.25
2017-10-29T15:25:05.117Z,4.07
2017-10-29T15:27:32.801Z,3.00
2017-10-29T15:29:59.131Z,2.75
2017-10-29T15:32:27.856Z,2.75
2017-10-29T15:34:54.735Z,2.70
2017-10-29T15:37:21.952Z,3.10
2017-10-29T15:39:51.806Z,2.30
2017-10-29T15:42:19.387Z,3.15
2017-10-29T15:44:47.450Z,2.60
2017-10-29T15:47:17.706Z,1.70
2017-10-29T15:49:45.023Z,2.35
2017-10-29T15:52:12.187Z,2.20
2017-10-29T15:54:39.282Z,2.70
2017-10-29T15:57:05.644Z,2.55
2017-10-29T15:59:32.022Z,2.20
2017-10-29T16:01:58.372Z,2.50
2017-10-29T16:04:24.709Z,2.45
2017-10-29T16:06:51.139Z,2.60
2017-10-29T16:09:17.469Z,3.45
2017-10-29T16:11:44.575Z,1.90
2017-10-29T16:14:10.925Z,2.12
2017-10-29T16:16:37.281Z,2.58
2017-10-29T16:19:03.641Z,2.15
2017-10-29T16:21:30.040Z,2.08
2017-10-29T16:23:57.118Z,2.40
2017-10-29T16:26:24.221Z,3.42
2017-10-29T16:28:51.589Z,3.28
2017-10-29T16:31:17.941Z,3.65
2017-10-29T16:33:44.292Z,2.55
2017-10-29T16:36:10.632Z,3.33
2017-10-29T16:38:37.112Z,3.90
2017-10-29T16:41:04.305Z,3.15
2017-10-29T16:43:30.756Z,3.53
2017-10-29T16:45:57.084Z,4.03
2017-10-29T16:48:24.153Z,4.07
2017-10-29T16:50:51.307Z,3.10
2017-10-29T16:53:17.655Z,2.97
2017-10-29T16:55:44.453Z,3.62
2017-10-29T16:58:10.786Z,2.28
2017-10-29T17:00:37.126Z,2.65
2017-10-29T17:03:03.445Z,2.12
2017-10-29T17:05:29.807Z,3.20
2017-10-29T17:07:56.146Z,2.97
2017-10-29T17:10:22.479Z,2.72
2017-10-29T17:12:48.844Z,2.30
2017-10-29T17:15:15.190Z,3.03
2017-10-29T17:17:41.548Z,2.90
2017-10-29T17:20:07.901Z,2.62
2017-10-29T17:22:34.274Z,2.45
2017-10-29T17:25:00.624Z,2.15
2017-10-29T17:27:26.960Z,2.87
2017-10-29T17:29:53.319Z,2.53
2017-10-29T17:32:20.296Z,2.35
2017-10-29T17:34:47.440Z,2.50
2017-10-29T17:37:13.793Z,2.65
2017-10-29T17:39:40.882Z,2.80
2017-10-29T17:42:10.520Z,2.95
2017-10-29T17:44:36.976Z,2.67
2017-10-29T17:47:04.043Z,2.97
2017-10-29T17:49:30.416Z,2.53
2017-10-29T17:51:56.799Z,2.53
2017-10-29T17:54:23.160Z,3.30
2017-10-29T17:56:49.754Z,2.03
2017-10-29T17:59:16.309Z,2.40
2017-10-29T18:01:43.393Z,2.97
2017-10-29T18:04:09.736Z,2.50
2017-10-29T18:06:36.834Z,2.25
2017-10-29T18:09:03.188Z,2.60
2017-10-29T18:11:29.538Z,2.30
2017-10-29T18:13:55.928Z,2.33
2017-10-29T18:16:22.277Z,2.20
2017-10-29T18:18:48.727Z,3.40
2017-10-29T18:21:15.064Z,2.70
2017-10-29T18:23:41.568Z,3.40
2017-10-29T18:26:07.882Z,3.35
2017-10-29T18:28:34.246Z,2.75
2017-10-29T18:31:00.677Z,2.10
2017-10-29T18:33:27.193Z,3.17
2017-10-29T18:35:53.537Z,3.67
2017-10-29T18:38:19.917Z,4.30
2017-10-29T18:40:46.355Z,2.75
2017-10-29T18:43:12.832Z,2.90
2017-10-29T18:45:39.688Z,3.08
2017-10-29T18:48:07.594Z,2.70
2017-10-29T18:50:36.683Z,3.20
2017-10-29T18:53:03.053Z,3.15
2017-10-29T18:55:29.722Z,2.53
2017-10-29T18:57:56.076Z,3.65
2017-10-29T19:00:22.439Z,3.45
2017-10-29T19:02:49.588Z,4.32
2017-10-29T19:05:16.075Z,3.67
2017-10-29T19:07:42.508Z,3.47
2017-10-29T19:10:08.890Z,2.80
2017-10-29T19:12:35.233Z,3.70
2017-10-29T19:15:02.329Z,3.10
2017-10-29T19:17:28.676Z,3.67
2017-10-29T19:19:55.076Z,5.40
2017-10-29T19:22:22.174Z,3.25
2017-10-29T19:24:48.505Z,3.87
2017-10-29T19:27:14.936Z,3.42
2017-10-29T19:29:41.321Z,3.60
2017-10-29T19:32:07.689Z,2.95
2017-10-29T19:34:34.121Z,3.30
2017-10-29T19:37:00.500Z,3.28
2017-10-29T19:39:27.017Z,3.30
2017-10-29T19:41:53.385Z,3.72
2017-10-29T19:44:22.145Z,3.65
2017-10-29T19:46:49.297Z,3.10
2017-10-29T19:49:15.658Z,2.95
2017-10-29T19:51:42.058Z,3.75
2017-10-29T19:54:08.380Z,2.70
2017-10-29T19:56:34.715Z,3.10
2017-10-29T19:59:04.752Z,3.00
2017-10-29T20:01:31.829Z,3.12
2017-10-29T20:03:58.228Z,4.55
2017-10-29T20:06:24.566Z,2.78
2017-10-29T20:08:51.803Z,3.03
2017-10-29T20:11:18.208Z,4.00
2017-10-29T20:13:44.599Z,2.37
2017-10-29T20:16:11.735Z,5.07
2017-10-29T20:18:38.104Z,3.53
2017-10-29T20:21:04.437Z,3.00
2017-10-29T20:23:30.831Z,2.92
2017-10-29T20:25:57.184Z,3.83
2017-10-29T20:28:24.379Z,3.67
2017-10-29T20:30:50.745Z,3.25
2017-10-29T20:33:23.901Z,3.30
2017-10-29T20:35:51.132Z,3.25
2017-10-29T20:38:18.246Z,3.30
2017-10-29T20:40:45.422Z,2.50
2017-10-29T20:43:11.825Z,3.95
2017-10-29T20:45:38.232Z,5.68
2017-10-29T20:48:05.390Z,2.72
2017-10-29T20:50:31.708Z,3.80
2017-10-29T20:53:01.055Z,3.65
2017-10-29T20:55:27.497Z,3.22
2017-10-29T20:57:53.860Z,4.18
2017-10-29T21:00:20.188Z,3.65
2017-10-29T21:02:46.569Z,2.70
2017-10-29T21:05:12.874Z,3.45
2017-10-29T21:07:39.213Z,3.80
2017-10-29T21:10:05.552Z,3.40
2017-10-29T21:12:32.643Z,3.85
2017-10-29T21:14:58.981Z,3.03
2017-10-29T21:17:26.391Z,3.35
2017-10-29T21:19:52.865Z,2.97
2017-10-29T21:22:19.203Z,2.90
2017-10-29T21:24:46.424Z,2.55
2017-10-29T21:27:12.798Z,2.62
2017-10-29T21:29:39.133Z,4.20
2017-10-29T21:32:05.451Z,3.53
2017-10-29T21:34:31.789Z,3.08
2017-10-29T21:36:58.134Z,2.87
2017-10-29T21:39:24.521Z,2.40
2017-10-29T21:41:50.851Z,3.40
2017-10-29T21:44:17.351Z,3.08
2017-10-29T21:46:43.709Z,3.08
2017-10-29T21:49:10.886Z,3.37
2017-10-29T21:51:37.241Z,3.55
2017-10-29T21:54:03.629Z,3.15
2017-10-29T21:56:29.953Z,3.75
2017-10-29T21:58:57.109Z,3.15
2017-10-29T22:01:24.169Z,2.65
2017-10-29T22:03:50.504Z,2.75
2017-10-29T22:06:17.645Z,3.53
2017-10-29T22:08:44.018Z,2.97
2017-10-29T22:11:10.511Z,3.78
2017-10-29T22:13:36.842Z,2.87
2017-10-29T22:16:03.169Z,2.72
2017-10-29T22:18:30.219Z,3.50
2017-10-29T22:20:57.272Z,2.72
2017-10-29T22:23:24.337Z,3.12
2017-10-29T22:25:51.410Z,3.20
2017-10-29T22:28:17.773Z,2.62
2017-10-29T22:30:44.173Z,2.70
2017-10-29T22:33:11.337Z,2.92
2017-10-29T22:35:37.729Z,3.67
2017-10-29T22:38:04.078Z,3.75
2017-10-29T22:40:30.431Z,2.80
2017-10-29T22:42:56.758Z,2.55
2017-10-29T22:45:23.112Z,3.00
2017-10-29T22:47:49.470Z,2.75
2017-10-29T22:50:15.813Z,3.20
2017-10-29T22:52:42.147Z,3.92
2017-10-29T22:55:08.478Z,2.80
2017-10-29T22:57:34.809Z,2.67
2017-10-29T23:00:01.165Z,2.65
2017-10-29T23:02:27.727Z,2.85
2017-10-29T23:05:06.217Z,3.05
2017-10-29T23:07:38.685Z,2.53
2017-10-29T23:10:05.846Z,3.33
2017-10-29T23:12:32.937Z,2.65
2017-10-29T23:14:59.266Z,2.05
2017-10-29T23:17:25.630Z,3.28
2017-10-29T23:19:52.204Z,2.90
2017-10-29T23:22:18.737Z,2.53
2017-10-29T23:24:45.103Z,3.65
2017-10-29T23:27:12.174Z,2.72
2017-10-29T23:29:38.969Z,3.20
2017-10-29T23:32:05.316Z,3.85
2017-10-29T23:34:31.673Z,2.95
2017-10-29T23:36:58.017Z,3.83
2017-10-29T23:39:24.985Z,4.62
2017-10-29T23:41:51.333Z,3.25
2017-10-29T23:44:17.695Z,3.20
2017-10-29T23:46:44.033Z,2.62
2017-10-29T23:49:10.463Z,2.72
2017-10-29T23:51:36.822Z,2.87
2017-10-29T23:54:03.187Z,3.05
2017-10-29T23:56:30.280Z,2.90
2017-10-29T23:58:56.621Z,3.33
